sensor_id;sensor_type;location;lat;lon;timestamp;P1;durP1;ratioP1;P2;durP2;ratioP2
7571;SDS011;3827;49.928;8.548;2023-08-07T00:00:36;1.95;;;0.70;;
7571;SDS011;3827;49.928;8.548;2023-08-07T00:03:03;1.17;;;0.60;;
7571;SDS011;3827;49.928;8.548;2023-08-07T00:05:30;1.30;;;0.50;;
7571;SDS011;3827;49.928;8.548;2023-08-07T00:07:57;2.30;;;0.70;;
7571;SDS011;3827;49.928;8.548;2023-08-07T00:10:25;2.47;;;0.75;;
7571;SDS011;3827;49.928;8.548;2023-08-07T00:12:52;1.98;;;0.60;;
7571;SDS011;3827;49.928;8.548;2023-08-07T00:15:18;1.92;;;0.77;;
7571;SDS011;3827;49.928;8.548;2023-08-07T00:17:45;1.98;;;0.75;;
7571;SDS011;3827;49.928;8.548;2023-08-07T00:20:12;2.25;;;0.98;;
7571;SDS011;3827;49.928;8.548;2023-08-07T00:22:39;2.45;;;0.70;;
7571;SDS011;3827;49.928;8.548;2023-08-07T00:25:06;2.35;;;0.70;;
7571;SDS011;3827;49.928;8.548;2023-08-07T00:27:34;1.20;;;0.70;;
7571;SDS011;3827;49.928;8.548;2023-08-07T00:30:01;1.45;;;0.70;;
7571;SDS011;3827;49.928;8.548;2023-08-07T00:32:28;1.27;;;0.63;;
7571;SDS011;3827;49.928;8.548;2023-08-07T00:34:54;1.73;;;0.65;;
7571;SDS011;3827;49.928;8.548;2023-08-07T00:37:21;2.00;;;0.70;;
7571;SDS011;3827;49.928;8.548;2023-08-07T00:39:48;1.90;;;0.80;;
7571;SDS011;3827;49.928;8.548;2023-08-07T00:42:15;1.70;;;0.75;;
7571;SDS011;3827;49.928;8.548;2023-08-07T00:44:43;1.48;;;0.70;;
7571;SDS011;3827;49.928;8.548;2023-08-07T00:47:09;1.30;;;0.68;;
7571;SDS011;3827;49.928;8.548;2023-08-07T00:49:37;1.15;;;0.63;;
7571;SDS011;3827;49.928;8.548;2023-08-07T00:52:04;1.83;;;0.70;;
7571;SDS011;3827;49.928;8.548;2023-08-07T00:54:31;1.50;;;0.80;;
7571;SDS011;3827;49.928;8.548;2023-08-07T00:56:58;3.00;;;0.82;;
7571;SDS011;3827;49.928;8.548;2023-08-07T00:59:31;3.13;;;0.90;;
7571;SDS011;3827;49.928;8.548;2023-08-07T01:02:00;2.45;;;1.10;;
7571;SDS011;3827;49.928;8.548;2023-08-07T01:04:27;3.28;;;1.10;;
7571;SDS011;3827;49.928;8.548;2023-08-07T01:06:53;1.45;;;0.80;;
7571;SDS011;3827;49.928;8.548;2023-08-07T01:09:20;2.13;;;0.95;;
7571;SDS011;3827;49.928;8.548;2023-08-07T01:11:48;1.90;;;0.90;;
7571;SDS011;3827;49.928;8.548;2023-08-07T01:14:21;2.10;;;1.20;;
7571;SDS011;3827;49.928;8.548;2023-08-07T01:16:56;1.23;;;1.00;;
7571;SDS011;3827;49.928;8.548;2023-08-07T01:19:32;1.55;;;1.02;;
7571;SDS011;3827;49.928;8.548;2023-08-07T01:22:05;1.38;;;1.00;;
7571;SDS011;3827;49.928;8.548;2023-08-07T01:24:32;2.00;;;1.08;;
7571;SDS011;3827;49.928;8.548;2023-08-07T01:27:02;3.35;;;1.13;;
7571;SDS011;3827;49.928;8.548;2023-08-07T01:29:37;2.88;;;1.27;;
7571;SDS011;3827;49.928;8.548;2023-08-07T01:32:09;2.28;;;1.02;;
7571;SDS011;3827;49.928;8.548;2023-08-07T01:34:40;2.53;;;1.20;;
7571;SDS011;3827;49.928;8.548;2023-08-07T01:37:09;2.87;;;1.20;;
7571;SDS011;3827;49.928;8.548;2023-08-07T01:39:37;3.57;;;1.50;;
7571;SDS011;3827;49.928;8.548;2023-08-07T01:42:06;2.88;;;1.15;;
7571;SDS011;3827;49.928;8.548;2023-08-07T01:44:35;2.88;;;1.10;;
7571;SDS011;3827;49.928;8.548;2023-08-07T01:47:02;2.80;;;1.30;;
7571;SDS011;3827;49.928;8.548;2023-08-07T01:49:29;2.10;;;1.27;;
7571;SDS011;3827;49.928;8.548;2023-08-07T01:51:56;2.63;;;1.33;;
7571;SDS011;3827;49.928;8.548;2023-08-07T01:54:24;3.08;;;1.48;;
7571;SDS011;3827;49.928;8.548;2023-08-07T01:56:51;2.03;;;1.10;;
7571;SDS011;3827;49.928;8.548;2023-08-07T01:59:18;3.70;;;1.40;;
7571;SDS011;3827;49.928;8.548;2023-08-07T02:01:44;1.93;;;1.30;;
7571;SDS011;3827;49.928;8.548;2023-08-07T02:04:11;3.73;;;1.70;;
7571;SDS011;3827;49.928;8.548;2023-08-07T02:06:38;3.08;;;1.60;;
7571;SDS011;3827;49.928;8.548;2023-08-07T02:09:05;3.65;;;1.40;;
7571;SDS011;3827;49.928;8.548;2023-08-07T02:11:33;3.25;;;1.40;;
7571;SDS011;3827;49.928;8.548;2023-08-07T02:13:59;3.95;;;1.48;;
7571;SDS011;3827;49.928;8.548;2023-08-07T02:16:26;3.13;;;1.50;;
7571;SDS011;3827;49.928;8.548;2023-08-07T02:18:53;4.20;;;1.70;;
7571;SDS011;3827;49.928;8.548;2023-08-07T02:21:19;4.43;;;1.63;;
7571;SDS011;3827;49.928;8.548;2023-08-07T02:23:46;4.72;;;1.45;;
7571;SDS011;3827;49.928;8.548;2023-08-07T02:26:13;4.15;;;1.52;;
7571;SDS011;3827;49.928;8.548;2023-08-07T02:28:41;2.90;;;1.50;;
7571;SDS011;3827;49.928;8.548;2023-08-07T02:31:08;3.63;;;1.50;;
7571;SDS011;3827;49.928;8.548;2023-08-07T02:33:34;4.30;;;1.70;;
7571;SDS011;3827;49.928;8.548;2023-08-07T02:36:01;3.50;;;1.67;;
7571;SDS011;3827;49.928;8.548;2023-08-07T02:38:28;3.58;;;1.85;;
7571;SDS011;3827;49.928;8.548;2023-08-07T02:40:55;4.17;;;1.70;;
7571;SDS011;3827;49.928;8.548;2023-08-07T02:43:22;2.47;;;1.23;;
7571;SDS011;3827;49.928;8.548;2023-08-07T02:45:50;3.42;;;1.60;;
7571;SDS011;3827;49.928;8.548;2023-08-07T02:48:16;4.82;;;1.75;;
7571;SDS011;3827;49.928;8.548;2023-08-07T02:50:44;3.88;;;1.48;;
7571;SDS011;3827;49.928;8.548;2023-08-07T02:53:11;2.83;;;1.50;;
7571;SDS011;3827;49.928;8.548;2023-08-07T02:55:37;3.05;;;1.90;;
7571;SDS011;3827;49.928;8.548;2023-08-07T02:58:04;2.67;;;1.52;;
7571;SDS011;3827;49.928;8.548;2023-08-07T03:00:31;3.80;;;1.80;;
7571;SDS011;3827;49.928;8.548;2023-08-07T03:03:01;4.43;;;1.65;;
7571;SDS011;3827;49.928;8.548;2023-08-07T03:05:28;4.28;;;1.63;;
7571;SDS011;3827;49.928;8.548;2023-08-07T03:07:55;3.45;;;1.45;;
7571;SDS011;3827;49.928;8.548;2023-08-07T03:10:22;2.53;;;1.20;;
7571;SDS011;3827;49.928;8.548;2023-08-07T03:12:48;4.03;;;1.60;;
7571;SDS011;3827;49.928;8.548;2023-08-07T03:15:15;4.45;;;1.60;;
7571;SDS011;3827;49.928;8.548;2023-08-07T03:17:42;4.53;;;1.55;;
7571;SDS011;3827;49.928;8.548;2023-08-07T03:20:11;4.95;;;1.70;;
7571;SDS011;3827;49.928;8.548;2023-08-07T03:22:38;3.50;;;1.40;;
7571;SDS011;3827;49.928;8.548;2023-08-07T03:25:05;2.83;;;1.40;;
7571;SDS011;3827;49.928;8.548;2023-08-07T03:27:32;3.72;;;1.58;;
7571;SDS011;3827;49.928;8.548;2023-08-07T03:29:59;4.22;;;1.58;;
7571;SDS011;3827;49.928;8.548;2023-08-07T03:32:25;4.05;;;1.67;;
7571;SDS011;3827;49.928;8.548;2023-08-07T03:34:52;3.97;;;1.60;;
7571;SDS011;3827;49.928;8.548;2023-08-07T03:37:20;4.03;;;1.70;;
7571;SDS011;3827;49.928;8.548;2023-08-07T03:39:47;2.80;;;1.48;;
7571;SDS011;3827;49.928;8.548;2023-08-07T03:42:13;3.40;;;1.40;;
7571;SDS011;3827;49.928;8.548;2023-08-07T03:44:40;4.10;;;1.60;;
7571;SDS011;3827;49.928;8.548;2023-08-07T03:47:07;3.25;;;1.40;;
7571;SDS011;3827;49.928;8.548;2023-08-07T03:49:34;3.87;;;1.60;;
7571;SDS011;3827;49.928;8.548;2023-08-07T03:52:01;3.75;;;1.52;;
7571;SDS011;3827;49.928;8.548;2023-08-07T03:54:29;4.85;;;1.60;;
7571;SDS011;3827;49.928;8.548;2023-08-07T03:56:56;1.83;;;1.43;;
7571;SDS011;3827;49.928;8.548;2023-08-07T03:59:23;3.42;;;1.58;;
7571;SDS011;3827;49.928;8.548;2023-08-07T04:01:49;5.35;;;1.63;;
7571;SDS011;3827;49.928;8.548;2023-08-07T04:04:16;2.00;;;1.30;;
7571;SDS011;3827;49.928;8.548;2023-08-07T04:06:43;3.65;;;1.70;;
7571;SDS011;3827;49.928;8.548;2023-08-07T04:09:12;4.35;;;1.50;;
7571;SDS011;3827;49.928;8.548;2023-08-07T04:11:44;2.63;;;1.27;;
7571;SDS011;3827;49.928;8.548;2023-08-07T04:14:11;2.75;;;1.50;;
7571;SDS011;3827;49.928;8.548;2023-08-07T04:16:37;3.45;;;1.67;;
7571;SDS011;3827;49.928;8.548;2023-08-07T04:19:04;3.25;;;1.50;;
7571;SDS011;3827;49.928;8.548;2023-08-07T04:21:32;2.75;;;1.42;;
7571;SDS011;3827;49.928;8.548;2023-08-07T04:23:59;4.20;;;1.40;;
7571;SDS011;3827;49.928;8.548;2023-08-07T04:26:32;2.67;;;1.47;;
7571;SDS011;3827;49.928;8.548;2023-08-07T04:29:03;2.38;;;1.35;;
7571;SDS011;3827;49.928;8.548;2023-08-07T04:31:30;2.53;;;1.40;;
7571;SDS011;3827;49.928;8.548;2023-08-07T04:33:57;2.75;;;1.50;;
7571;SDS011;3827;49.928;8.548;2023-08-07T04:36:24;4.53;;;1.58;;
7571;SDS011;3827;49.928;8.548;2023-08-07T04:38:51;2.95;;;1.50;;
7571;SDS011;3827;49.928;8.548;2023-08-07T04:41:20;3.28;;;1.50;;
7571;SDS011;3827;49.928;8.548;2023-08-07T04:43:47;3.38;;;1.45;;
7571;SDS011;3827;49.928;8.548;2023-08-07T04:46:15;3.15;;;1.45;;
7571;SDS011;3827;49.928;8.548;2023-08-07T04:48:42;2.70;;;1.20;;
7571;SDS011;3827;49.928;8.548;2023-08-07T04:51:09;2.83;;;1.55;;
7571;SDS011;3827;49.928;8.548;2023-08-07T04:53:35;4.85;;;1.50;;
7571;SDS011;3827;49.928;8.548;2023-08-07T04:56:02;3.40;;;1.75;;
7571;SDS011;3827;49.928;8.548;2023-08-07T04:58:29;4.93;;;1.70;;
7571;SDS011;3827;49.928;8.548;2023-08-07T05:00:56;4.43;;;1.50;;
7571;SDS011;3827;49.928;8.548;2023-08-07T05:03:24;3.20;;;1.85;;
7571;SDS011;3827;49.928;8.548;2023-08-07T05:05:57;5.75;;;1.70;;
7571;SDS011;3827;49.928;8.548;2023-08-07T05:08:24;2.92;;;1.27;;
7571;SDS011;3827;49.928;8.548;2023-08-07T05:10:51;3.80;;;1.50;;
7571;SDS011;3827;49.928;8.548;2023-08-07T05:13:18;4.45;;;1.63;;
7571;SDS011;3827;49.928;8.548;2023-08-07T05:15:46;2.33;;;1.60;;
7571;SDS011;3827;49.928;8.548;2023-08-07T05:18:13;4.20;;;1.25;;
7571;SDS011;3827;49.928;8.548;2023-08-07T05:20:41;4.40;;;1.50;;
7571;SDS011;3827;49.928;8.548;2023-08-07T05:23:08;2.33;;;1.35;;
7571;SDS011;3827;49.928;8.548;2023-08-07T05:25:35;2.45;;;1.33;;
7571;SDS011;3827;49.928;8.548;2023-08-07T05:28:02;3.97;;;1.60;;
7571;SDS011;3827;49.928;8.548;2023-08-07T05:30:30;4.00;;;1.70;;
7571;SDS011;3827;49.928;8.548;2023-08-07T05:32:57;2.22;;;1.35;;
7571;SDS011;3827;49.928;8.548;2023-08-07T05:35:23;2.38;;;1.40;;
7571;SDS011;3827;49.928;8.548;2023-08-07T05:37:51;3.25;;;1.58;;
7571;SDS011;3827;49.928;8.548;2023-08-07T05:40:18;5.07;;;1.53;;
7571;SDS011;3827;49.928;8.548;2023-08-07T05:42:45;4.80;;;1.70;;
7571;SDS011;3827;49.928;8.548;2023-08-07T05:45:12;2.78;;;1.70;;
7571;SDS011;3827;49.928;8.548;2023-08-07T05:47:38;3.17;;;1.50;;
7571;SDS011;3827;49.928;8.548;2023-08-07T05:50:06;3.88;;;1.70;;
7571;SDS011;3827;49.928;8.548;2023-08-07T05:52:33;3.22;;;1.60;;
7571;SDS011;3827;49.928;8.548;2023-08-07T05:55:01;4.97;;;1.80;;
7571;SDS011;3827;49.928;8.548;2023-08-07T05:57:28;3.28;;;1.63;;
7571;SDS011;3827;49.928;8.548;2023-08-07T05:59:55;2.83;;;1.75;;
7571;SDS011;3827;49.928;8.548;2023-08-07T06:02:21;3.53;;;1.55;;
7571;SDS011;3827;49.928;8.548;2023-08-07T06:04:48;2.90;;;1.50;;
7571;SDS011;3827;49.928;8.548;2023-08-07T06:07:15;2.20;;;1.20;;
7571;SDS011;3827;49.928;8.548;2023-08-07T06:09:41;3.23;;;1.50;;
7571;SDS011;3827;49.928;8.548;2023-08-07T06:12:09;1.70;;;1.60;;
7571;SDS011;3827;49.928;8.548;2023-08-07T06:14:36;2.85;;;1.60;;
7571;SDS011;3827;49.928;8.548;2023-08-07T06:17:03;1.88;;;1.55;;
7571;SDS011;3827;49.928;8.548;2023-08-07T06:19:30;7.50;;;2.00;;
7571;SDS011;3827;49.928;8.548;2023-08-07T06:21:58;2.63;;;1.55;;
7571;SDS011;3827;49.928;8.548;2023-08-07T06:24:24;3.90;;;1.60;;
7571;SDS011;3827;49.928;8.548;2023-08-07T06:26:51;3.77;;;1.77;;
7571;SDS011;3827;49.928;8.548;2023-08-07T06:29:19;2.70;;;1.50;;
7571;SDS011;3827;49.928;8.548;2023-08-07T06:31:46;2.40;;;1.60;;
7571;SDS011;3827;49.928;8.548;2023-08-07T06:34:13;4.28;;;1.67;;
7571;SDS011;3827;49.928;8.548;2023-08-07T06:36:39;3.75;;;1.77;;
7571;SDS011;3827;49.928;8.548;2023-08-07T06:39:06;2.42;;;1.50;;
7571;SDS011;3827;49.928;8.548;2023-08-07T06:41:33;2.53;;;1.77;;
7571;SDS011;3827;49.928;8.548;2023-08-07T06:44:00;3.23;;;1.53;;
7571;SDS011;3827;49.928;8.548;2023-08-07T06:46:28;3.00;;;1.43;;
7571;SDS011;3827;49.928;8.548;2023-08-07T06:48:55;4.25;;;1.80;;
7571;SDS011;3827;49.928;8.548;2023-08-07T06:51:21;2.83;;;1.50;;
7571;SDS011;3827;49.928;8.548;2023-08-07T06:53:48;3.45;;;1.63;;
7571;SDS011;3827;49.928;8.548;2023-08-07T06:56:15;2.75;;;1.70;;
7571;SDS011;3827;49.928;8.548;2023-08-07T06:58:42;2.72;;;1.67;;
7571;SDS011;3827;49.928;8.548;2023-08-07T07:01:08;2.47;;;1.60;;
7571;SDS011;3827;49.928;8.548;2023-08-07T07:03:36;3.20;;;1.55;;
7571;SDS011;3827;49.928;8.548;2023-08-07T07:06:03;2.25;;;1.50;;
7571;SDS011;3827;49.928;8.548;2023-08-07T07:08:30;2.65;;;1.65;;
7571;SDS011;3827;49.928;8.548;2023-08-07T07:10:57;3.30;;;1.48;;
7571;SDS011;3827;49.928;8.548;2023-08-07T07:13:24;2.88;;;1.58;;
7571;SDS011;3827;49.928;8.548;2023-08-07T07:15:53;2.58;;;1.40;;
7571;SDS011;3827;49.928;8.548;2023-08-07T07:18:21;1.77;;;1.30;;
7571;SDS011;3827;49.928;8.548;2023-08-07T07:20:50;3.15;;;1.40;;
7571;SDS011;3827;49.928;8.548;2023-08-07T07:23:22;2.78;;;1.50;;
7571;SDS011;3827;49.928;8.548;2023-08-07T07:25:49;2.60;;;1.40;;
7571;SDS011;3827;49.928;8.548;2023-08-07T07:28:16;1.88;;;1.35;;
7571;SDS011;3827;49.928;8.548;2023-08-07T07:30:43;3.08;;;1.50;;
7571;SDS011;3827;49.928;8.548;2023-08-07T07:33:09;2.97;;;1.30;;
7571;SDS011;3827;49.928;8.548;2023-08-07T07:35:38;2.55;;;1.50;;
7571;SDS011;3827;49.928;8.548;2023-08-07T07:38:06;2.63;;;1.50;;
7571;SDS011;3827;49.928;8.548;2023-08-07T07:40:35;2.50;;;1.50;;
7571;SDS011;3827;49.928;8.548;2023-08-07T07:43:04;2.20;;;1.50;;
7571;SDS011;3827;49.928;8.548;2023-08-07T07:45:34;1.92;;;1.40;;
7571;SDS011;3827;49.928;8.548;2023-08-07T07:48:05;3.10;;;1.30;;
7571;SDS011;3827;49.928;8.548;2023-08-07T07:50:39;1.63;;;1.50;;
7571;SDS011;3827;49.928;8.548;2023-08-07T07:53:08;3.35;;;1.50;;
7571;SDS011;3827;49.928;8.548;2023-08-07T07:55:34;3.20;;;1.20;;
7571;SDS011;3827;49.928;8.548;2023-08-07T07:58:03;2.00;;;1.30;;
7571;SDS011;3827;49.928;8.548;2023-08-07T08:00:29;2.15;;;1.20;;
7571;SDS011;3827;49.928;8.548;2023-08-07T08:02:56;3.80;;;1.30;;
7571;SDS011;3827;49.928;8.548;2023-08-07T08:05:24;3.65;;;1.50;;
7571;SDS011;3827;49.928;8.548;2023-08-07T08:07:51;2.60;;;1.42;;
7571;SDS011;3827;49.928;8.548;2023-08-07T08:10:19;3.55;;;1.50;;
7571;SDS011;3827;49.928;8.548;2023-08-07T08:12:46;1.85;;;1.25;;
7571;SDS011;3827;49.928;8.548;2023-08-07T08:15:12;4.03;;;1.40;;
7571;SDS011;3827;49.928;8.548;2023-08-07T08:17:39;2.88;;;1.58;;
7571;SDS011;3827;49.928;8.548;2023-08-07T08:20:06;2.70;;;1.50;;
7571;SDS011;3827;49.928;8.548;2023-08-07T08:22:34;2.67;;;1.50;;
7571;SDS011;3827;49.928;8.548;2023-08-07T08:25:01;3.20;;;1.70;;
7571;SDS011;3827;49.928;8.548;2023-08-07T08:27:30;2.17;;;1.30;;
7571;SDS011;3827;49.928;8.548;2023-08-07T08:29:57;3.63;;;1.40;;
7571;SDS011;3827;49.928;8.548;2023-08-07T08:32:24;4.25;;;1.50;;
7571;SDS011;3827;49.928;8.548;2023-08-07T08:34:51;3.20;;;1.13;;
7571;SDS011;3827;49.928;8.548;2023-08-07T08:37:17;2.97;;;1.63;;
7571;SDS011;3827;49.928;8.548;2023-08-07T08:39:44;3.47;;;1.50;;
7571;SDS011;3827;49.928;8.548;2023-08-07T08:42:11;2.30;;;1.40;;
7571;SDS011;3827;49.928;8.548;2023-08-07T08:44:40;4.60;;;1.50;;
7571;SDS011;3827;49.928;8.548;2023-08-07T08:47:08;4.65;;;1.35;;
7571;SDS011;3827;49.928;8.548;2023-08-07T08:49:37;3.40;;;1.63;;
7571;SDS011;3827;49.928;8.548;2023-08-07T08:52:11;2.78;;;1.90;;
7571;SDS011;3827;49.928;8.548;2023-08-07T08:54:39;3.10;;;1.35;;
7571;SDS011;3827;49.928;8.548;2023-08-07T08:57:06;4.18;;;1.90;;
7571;SDS011;3827;49.928;8.548;2023-08-07T08:59:33;2.53;;;1.40;;
7571;SDS011;3827;49.928;8.548;2023-08-07T09:02:01;3.45;;;1.55;;
7571;SDS011;3827;49.928;8.548;2023-08-07T09:04:29;3.50;;;1.40;;
7571;SDS011;3827;49.928;8.548;2023-08-07T09:06:56;4.68;;;1.65;;
7571;SDS011;3827;49.928;8.548;2023-08-07T09:09:23;3.10;;;1.63;;
7571;SDS011;3827;49.928;8.548;2023-08-07T09:11:50;3.78;;;1.42;;
7571;SDS011;3827;49.928;8.548;2023-08-07T09:14:20;2.97;;;1.40;;
7571;SDS011;3827;49.928;8.548;2023-08-07T09:16:53;2.60;;;1.30;;
7571;SDS011;3827;49.928;8.548;2023-08-07T09:19:21;2.45;;;1.40;;
7571;SDS011;3827;49.928;8.548;2023-08-07T09:21:48;3.03;;;1.45;;
7571;SDS011;3827;49.928;8.548;2023-08-07T09:24:15;2.67;;;1.30;;
7571;SDS011;3827;49.928;8.548;2023-08-07T09:26:43;2.47;;;1.40;;
7571;SDS011;3827;49.928;8.548;2023-08-07T09:29:10;2.65;;;1.33;;
7571;SDS011;3827;49.928;8.548;2023-08-07T09:31:38;1.87;;;1.40;;
7571;SDS011;3827;49.928;8.548;2023-08-07T09:34:09;2.83;;;1.30;;
7571;SDS011;3827;49.928;8.548;2023-08-07T09:36:40;3.30;;;1.33;;
7571;SDS011;3827;49.928;8.548;2023-08-07T09:39:08;2.83;;;1.37;;
7571;SDS011;3827;49.928;8.548;2023-08-07T09:41:36;1.48;;;1.20;;
7571;SDS011;3827;49.928;8.548;2023-08-07T09:44:06;2.93;;;1.30;;
7571;SDS011;3827;49.928;8.548;2023-08-07T09:46:40;5.33;;;1.60;;
7571;SDS011;3827;49.928;8.548;2023-08-07T09:49:07;2.10;;;1.40;;
7571;SDS011;3827;49.928;8.548;2023-08-07T09:51:42;4.30;;;1.60;;
7571;SDS011;3827;49.928;8.548;2023-08-07T09:54:09;3.67;;;1.58;;
7571;SDS011;3827;49.928;8.548;2023-08-07T09:56:37;3.03;;;1.63;;
7571;SDS011;3827;49.928;8.548;2023-08-07T09:59:04;2.08;;;1.50;;
7571;SDS011;3827;49.928;8.548;2023-08-07T10:01:31;2.50;;;1.45;;
7571;SDS011;3827;49.928;8.548;2023-08-07T10:03:58;2.25;;;1.60;;
7571;SDS011;3827;49.928;8.548;2023-08-07T10:06:26;1.73;;;1.42;;
7571;SDS011;3827;49.928;8.548;2023-08-07T10:08:55;2.45;;;1.50;;
7571;SDS011;3827;49.928;8.548;2023-08-07T10:11:23;2.88;;;1.63;;
7571;SDS011;3827;49.928;8.548;2023-08-07T10:13:50;2.35;;;1.67;;
7571;SDS011;3827;49.928;8.548;2023-08-07T10:16:19;2.15;;;1.70;;
7571;SDS011;3827;49.928;8.548;2023-08-07T10:18:46;3.53;;;1.60;;
7571;SDS011;3827;49.928;8.548;2023-08-07T10:21:12;2.92;;;1.50;;
7571;SDS011;3827;49.928;8.548;2023-08-07T10:23:39;3.35;;;1.50;;
7571;SDS011;3827;49.928;8.548;2023-08-07T10:26:08;2.42;;;1.40;;
7571;SDS011;3827;49.928;8.548;2023-08-07T10:28:37;3.05;;;1.60;;
7571;SDS011;3827;49.928;8.548;2023-08-07T10:31:06;3.05;;;1.50;;
7571;SDS011;3827;49.928;8.548;2023-08-07T10:33:35;3.33;;;1.70;;
7571;SDS011;3827;49.928;8.548;2023-08-07T10:36:07;1.90;;;1.48;;
7571;SDS011;3827;49.928;8.548;2023-08-07T10:38:35;1.95;;;1.40;;
7571;SDS011;3827;49.928;8.548;2023-08-07T10:41:05;2.45;;;1.50;;
7571;SDS011;3827;49.928;8.548;2023-08-07T10:43:37;2.17;;;1.50;;
7571;SDS011;3827;49.928;8.548;2023-08-07T10:46:05;2.35;;;1.50;;
7571;SDS011;3827;49.928;8.548;2023-08-07T10:48:38;3.10;;;1.38;;
7571;SDS011;3827;49.928;8.548;2023-08-07T10:51:05;1.58;;;1.30;;
7571;SDS011;3827;49.928;8.548;2023-08-07T10:53:33;2.92;;;1.80;;
7571;SDS011;3827;49.928;8.548;2023-08-07T10:56:01;2.20;;;1.40;;
7571;SDS011;3827;49.928;8.548;2023-08-07T10:58:29;2.40;;;1.30;;
7571;SDS011;3827;49.928;8.548;2023-08-07T11:01:17;1.35;;;1.20;;
7571;SDS011;3827;49.928;8.548;2023-08-07T11:03:45;2.00;;;1.40;;
7571;SDS011;3827;49.928;8.548;2023-08-07T11:06:14;2.33;;;1.20;;
7571;SDS011;3827;49.928;8.548;2023-08-07T11:08:41;1.98;;;1.00;;
7571;SDS011;3827;49.928;8.548;2023-08-07T11:11:08;1.43;;;1.33;;
7571;SDS011;3827;49.928;8.548;2023-08-07T11:13:35;2.27;;;1.40;;
7571;SDS011;3827;49.928;8.548;2023-08-07T11:16:02;1.83;;;1.13;;
7571;SDS011;3827;49.928;8.548;2023-08-07T11:18:31;2.92;;;1.25;;
7571;SDS011;3827;49.928;8.548;2023-08-07T11:21:00;1.47;;;1.10;;
7571;SDS011;3827;49.928;8.548;2023-08-07T11:23:27;1.70;;;1.10;;
7571;SDS011;3827;49.928;8.548;2023-08-07T11:25:54;2.20;;;1.10;;
7571;SDS011;3827;49.928;8.548;2023-08-07T11:28:22;2.85;;;1.30;;
7571;SDS011;3827;49.928;8.548;2023-08-07T11:30:49;1.80;;;1.05;;
7571;SDS011;3827;49.928;8.548;2023-08-07T11:33:17;1.42;;;0.95;;
7571;SDS011;3827;49.928;8.548;2023-08-07T11:35:46;1.88;;;0.93;;
7571;SDS011;3827;49.928;8.548;2023-08-07T11:38:15;2.27;;;1.10;;
7571;SDS011;3827;49.928;8.548;2023-08-07T11:40:56;2.20;;;1.25;;
7571;SDS011;3827;49.928;8.548;2023-08-07T11:43:24;1.55;;;0.90;;
7571;SDS011;3827;49.928;8.548;2023-08-07T11:45:52;2.03;;;1.17;;
7571;SDS011;3827;49.928;8.548;2023-08-07T11:48:20;2.13;;;1.10;;
7571;SDS011;3827;49.928;8.548;2023-08-07T11:50:51;1.80;;;1.00;;
7571;SDS011;3827;49.928;8.548;2023-08-07T11:53:18;2.22;;;1.10;;
7571;SDS011;3827;49.928;8.548;2023-08-07T11:55:46;3.13;;;1.52;;
7571;SDS011;3827;49.928;8.548;2023-08-07T11:58:16;2.25;;;1.42;;
7571;SDS011;3827;49.928;8.548;2023-08-07T12:00:43;1.77;;;1.00;;
7571;SDS011;3827;49.928;8.548;2023-08-07T12:05:56;2.50;;;1.10;;
7571;SDS011;3827;49.928;8.548;2023-08-07T12:08:23;2.63;;;1.10;;
7571;SDS011;3827;49.928;8.548;2023-08-07T12:10:50;1.35;;;1.10;;
7571;SDS011;3827;49.928;8.548;2023-08-07T12:13:20;1.80;;;1.00;;
7571;SDS011;3827;49.928;8.548;2023-08-07T12:15:50;2.58;;;1.08;;
7571;SDS011;3827;49.928;8.548;2023-08-07T12:18:18;2.77;;;1.20;;
7571;SDS011;3827;49.928;8.548;2023-08-07T12:20:45;1.55;;;1.30;;
7571;SDS011;3827;49.928;8.548;2023-08-07T12:23:15;2.33;;;1.13;;
7571;SDS011;3827;49.928;8.548;2023-08-07T12:25:42;1.75;;;1.13;;
7571;SDS011;3827;49.928;8.548;2023-08-07T12:28:09;1.93;;;1.00;;
7571;SDS011;3827;49.928;8.548;2023-08-07T12:30:37;1.63;;;1.08;;
7571;SDS011;3827;49.928;8.548;2023-08-07T12:33:04;2.72;;;1.20;;
7571;SDS011;3827;49.928;8.548;2023-08-07T12:35:32;1.23;;;1.02;;
7571;SDS011;3827;49.928;8.548;2023-08-07T12:38:00;2.15;;;1.30;;
7571;SDS011;3827;49.928;8.548;2023-08-07T12:40:29;2.03;;;1.40;;
7571;SDS011;3827;49.928;8.548;2023-08-07T12:42:56;1.85;;;1.08;;
7571;SDS011;3827;49.928;8.548;2023-08-07T12:45:24;2.35;;;1.15;;
7571;SDS011;3827;49.928;8.548;2023-08-07T12:47:51;2.67;;;1.33;;
7571;SDS011;3827;49.928;8.548;2023-08-07T12:50:17;2.97;;;1.17;;
7571;SDS011;3827;49.928;8.548;2023-08-07T12:52:44;1.58;;;1.27;;
7571;SDS011;3827;49.928;8.548;2023-08-07T12:55:11;2.38;;;1.20;;
7571;SDS011;3827;49.928;8.548;2023-08-07T12:57:41;2.35;;;1.08;;
7571;SDS011;3827;49.928;8.548;2023-08-07T13:00:09;3.10;;;1.17;;
7571;SDS011;3827;49.928;8.548;2023-08-07T13:02:37;1.40;;;1.23;;
7571;SDS011;3827;49.928;8.548;2023-08-07T13:05:04;2.03;;;1.00;;
7571;SDS011;3827;49.928;8.548;2023-08-07T13:07:31;2.40;;;1.00;;
7571;SDS011;3827;49.928;8.548;2023-08-07T13:09:58;2.20;;;1.30;;
7571;SDS011;3827;49.928;8.548;2023-08-07T13:12:25;1.23;;;1.00;;
7571;SDS011;3827;49.928;8.548;2023-08-07T13:14:53;1.85;;;1.20;;
7571;SDS011;3827;49.928;8.548;2023-08-07T13:17:20;2.75;;;1.20;;
7571;SDS011;3827;49.928;8.548;2023-08-07T13:19:47;1.25;;;1.15;;
7571;SDS011;3827;49.928;8.548;2023-08-07T13:22:14;3.03;;;1.10;;
7571;SDS011;3827;49.928;8.548;2023-08-07T13:24:41;4.22;;;1.25;;
7571;SDS011;3827;49.928;8.548;2023-08-07T13:27:08;2.00;;;1.00;;
7571;SDS011;3827;49.928;8.548;2023-08-07T13:29:35;1.70;;;1.00;;
7571;SDS011;3827;49.928;8.548;2023-08-07T13:32:03;0.82;;;0.80;;
7571;SDS011;3827;49.928;8.548;2023-08-07T13:34:34;1.73;;;1.02;;
7571;SDS011;3827;49.928;8.548;2023-08-07T13:37:01;2.20;;;1.23;;
7571;SDS011;3827;49.928;8.548;2023-08-07T13:39:28;1.30;;;1.10;;
7571;SDS011;3827;49.928;8.548;2023-08-07T13:41:55;2.75;;;1.10;;
7571;SDS011;3827;49.928;8.548;2023-08-07T13:44:22;1.58;;;1.08;;
7571;SDS011;3827;49.928;8.548;2023-08-07T13:46:49;1.42;;;1.02;;
7571;SDS011;3827;49.928;8.548;2023-08-07T13:49:17;2.15;;;1.00;;
7571;SDS011;3827;49.928;8.548;2023-08-07T13:51:45;2.17;;;1.00;;
7571;SDS011;3827;49.928;8.548;2023-08-07T13:54:12;3.50;;;1.10;;
7571;SDS011;3827;49.928;8.548;2023-08-07T13:56:39;1.67;;;1.00;;
7571;SDS011;3827;49.928;8.548;2023-08-07T13:59:06;1.90;;;1.10;;
7571;SDS011;3827;49.928;8.548;2023-08-07T14:01:33;1.13;;;0.93;;
7571;SDS011;3827;49.928;8.548;2023-08-07T14:04:00;2.17;;;1.00;;
7571;SDS011;3827;49.928;8.548;2023-08-07T14:06:28;1.80;;;1.05;;
7571;SDS011;3827;49.928;8.548;2023-08-07T14:08:55;2.08;;;1.00;;
7571;SDS011;3827;49.928;8.548;2023-08-07T14:11:22;1.90;;;1.20;;
7571;SDS011;3827;49.928;8.548;2023-08-07T14:13:52;2.17;;;1.27;;
7571;SDS011;3827;49.928;8.548;2023-08-07T14:16:19;1.48;;;1.00;;
7571;SDS011;3827;49.928;8.548;2023-08-07T14:18:47;4.00;;;1.15;;
7571;SDS011;3827;49.928;8.548;2023-08-07T14:21:14;1.40;;;1.00;;
7571;SDS011;3827;49.928;8.548;2023-08-07T14:23:42;1.23;;;1.13;;
7571;SDS011;3827;49.928;8.548;2023-08-07T14:26:10;1.73;;;1.02;;
7571;SDS011;3827;49.928;8.548;2023-08-07T14:28:37;2.17;;;1.10;;
7571;SDS011;3827;49.928;8.548;2023-08-07T14:31:06;2.20;;;1.40;;
7571;SDS011;3827;49.928;8.548;2023-08-07T14:33:36;1.90;;;1.00;;
7571;SDS011;3827;49.928;8.548;2023-08-07T14:36:06;2.55;;;1.27;;
7571;SDS011;3827;49.928;8.548;2023-08-07T14:38:33;2.05;;;1.20;;
7571;SDS011;3827;49.928;8.548;2023-08-07T14:41:01;1.20;;;1.00;;
7571;SDS011;3827;49.928;8.548;2023-08-07T14:43:28;2.35;;;1.10;;
7571;SDS011;3827;49.928;8.548;2023-08-07T14:45:56;2.13;;;1.20;;
7571;SDS011;3827;49.928;8.548;2023-08-07T14:48:22;2.97;;;1.40;;
7571;SDS011;3827;49.928;8.548;2023-08-07T14:50:49;2.30;;;1.10;;
7571;SDS011;3827;49.928;8.548;2023-08-07T14:53:16;2.05;;;1.00;;
7571;SDS011;3827;49.928;8.548;2023-08-07T14:55:43;2.10;;;1.27;;
7571;SDS011;3827;49.928;8.548;2023-08-07T14:58:11;2.53;;;1.20;;
7571;SDS011;3827;49.928;8.548;2023-08-07T15:00:38;1.95;;;1.35;;
7571;SDS011;3827;49.928;8.548;2023-08-07T15:03:05;1.73;;;1.20;;
7571;SDS011;3827;49.928;8.548;2023-08-07T15:05:32;1.92;;;1.15;;
7571;SDS011;3827;49.928;8.548;2023-08-07T15:07:59;1.63;;;1.33;;
7571;SDS011;3827;49.928;8.548;2023-08-07T15:10:26;1.45;;;1.35;;
7571;SDS011;3827;49.928;8.548;2023-08-07T15:12:53;2.13;;;1.20;;
7571;SDS011;3827;49.928;8.548;2023-08-07T15:15:22;2.08;;;1.35;;
7571;SDS011;3827;49.928;8.548;2023-08-07T15:17:49;2.10;;;1.10;;
7571;SDS011;3827;49.928;8.548;2023-08-07T15:20:15;2.03;;;1.23;;